createdAt,value
2022-09-14T00:01:35.346Z,100504.88
2022-09-14T00:04:05.484Z,100503.69
2022-09-14T00:06:35.458Z,100507.56
2022-09-14T00:09:03.613Z,100507.94
2022-09-14T00:11:33.770Z,100500.50
2022-09-14T00:14:03.173Z,100499.97
2022-09-14T00:16:33.434Z,100491.03
2022-09-14T00:19:05.661Z,100493.03
2022-09-14T00:21:35.771Z,100495.03
2022-09-14T00:24:04.488Z,100484.25
2022-09-14T00:26:32.317Z,100479.19
2022-09-14T00:29:04.366Z,100477.50
2022-09-14T00:31:33.359Z,100483.59
2022-09-14T00:34:02.669Z,100484.44
2022-09-14T00:36:32.102Z,100470.75
2022-09-14T00:39:01.728Z,100470.56
2022-09-14T00:41:32.932Z,100470.06
2022-09-14T00:44:03.598Z,100472.41
2022-09-14T00:46:33.117Z,100472.72
2022-09-14T00:49:03.765Z,100466.63
2022-09-14T00:51:34.681Z,100463.75
2022-09-14T00:54:06.834Z,100467.94
2022-09-14T00:56:35.239Z,100457.66
2022-09-14T00:59:07.930Z,100452.91
2022-09-14T01:01:36.188Z,100448.03
2022-09-14T01:04:04.066Z,100449.09
2022-09-14T01:06:40.285Z,100454.44
2022-09-14T01:09:20.863Z,100449.72
2022-09-14T01:12:02.633Z,100448.34
2022-09-14T01:14:36.395Z,100454.66
2022-09-14T01:17:10.114Z,100446.38
2022-09-14T01:19:57.473Z,100445.00
2022-09-14T01:22:36.419Z,100438.03
2022-09-14T01:25:16.635Z,100443.56
2022-09-14T01:27:47.794Z,100447.44
2022-09-14T01:30:21.574Z,100442.09
2022-09-14T01:32:54.231Z,100448.28
2022-09-14T01:35:30.633Z,100444.72
2022-09-14T01:38:02.530Z,100435.78
2022-09-14T01:40:34.923Z,100440.31
2022-09-14T01:43:09.104Z,100436.09
2022-09-14T01:45:38.505Z,100440.63
2022-09-14T01:48:08.888Z,100434.16
2022-09-14T01:50:41.244Z,100443.91
2022-09-14T01:53:13.903Z,100441.47
2022-09-14T01:55:46.094Z,100446.63
2022-09-14T01:58:21.363Z,100442.94
2022-09-14T02:00:51.701Z,100449.66
2022-09-14T02:03:23.276Z,100444.41
2022-09-14T02:05:57.996Z,100449.97
2022-09-14T02:08:29.260Z,100444.38
2022-09-14T02:10:57.936Z,100447.41
2022-09-14T02:13:28.072Z,100445.16
2022-09-14T02:15:56.022Z,100442.47
2022-09-14T02:18:24.138Z,100449.94
2022-09-14T02:20:55.321Z,100459.50
2022-09-14T02:23:24.221Z,100454.78
2022-09-14T02:25:52.188Z,100443.84
2022-09-14T02:28:22.499Z,100455.81
2022-09-14T02:31:04.636Z,100443.47
2022-09-14T02:33:41.500Z,100446.13
2022-09-14T02:36:17.609Z,100435.91
2022-09-14T02:38:52.813Z,100443.44
2022-09-14T02:41:27.819Z,100433.03
2022-09-14T02:44:04.416Z,100431.78
2022-09-14T02:46:38.738Z,100431.09
2022-09-14T02:49:12.851Z,100431.94
2022-09-14T02:51:47.456Z,100429.25
2022-09-14T02:54:19.321Z,100430.09
2022-09-14T02:56:48.135Z,100431.94
2022-09-14T02:59:15.985Z,100436.19
2022-09-14T03:01:45.377Z,100427.53
2022-09-14T03:04:13.269Z,100438.72
2022-09-14T03:06:41.122Z,100433.66
2022-09-14T03:09:08.977Z,100433.19
2022-09-14T03:11:36.855Z,100427.38
2022-09-14T03:14:04.718Z,100424.69
2022-09-14T03:16:32.732Z,100434.84
2022-09-14T03:19:01.964Z,100426.97
2022-09-14T03:21:29.822Z,100430.66
2022-09-14T03:23:58.213Z,100447.31
2022-09-14T03:26:29.014Z,100437.97
2022-09-14T03:29:00.375Z,100434.84
2022-09-14T03:31:28.355Z,100426.81
2022-09-14T03:33:58.197Z,100428.38
2022-09-14T03:36:29.895Z,100419.31
2022-09-14T03:39:00.192Z,100422.53
2022-09-14T03:41:28.044Z,100433.44
2022-09-14T03:43:55.962Z,100420.19
2022-09-14T03:46:26.490Z,100418.06
2022-09-14T03:48:55.860Z,100418.31
2022-09-14T03:51:24.376Z,100417.41
2022-09-14T03:53:53.920Z,100417.56
2022-09-14T03:56:23.392Z,100425.59
2022-09-14T03:58:51.276Z,100409.22
2022-09-14T04:01:20.829Z,100416.19
2022-09-14T04:03:48.990Z,100413.91
2022-09-14T04:06:17.506Z,100423.94
2022-09-14T04:08:47.244Z,100421.28
2022-09-14T04:11:18.299Z,100418.88
2022-09-14T04:13:47.037Z,100422.44
2022-09-14T04:16:15.995Z,100426.38
2022-09-14T04:18:44.976Z,100435.78
2022-09-14T04:21:15.923Z,100431.31
2022-09-14T04:24:12.735Z,100426.22
2022-09-14T04:26:34.083Z,100428.28
2022-09-14T04:29:02.058Z,100416.84
2022-09-14T04:31:29.999Z,100411.28
2022-09-14T04:33:58.421Z,100405.78
2022-09-14T04:36:30.846Z,100405.13
2022-09-14T04:39:00.686Z,100410.34
2022-09-14T04:41:29.615Z,100416.84
2022-09-14T04:43:59.893Z,100416.19
2022-09-14T04:46:29.750Z,100423.13
2022-09-14T04:48:58.035Z,100414.50
2022-09-14T04:51:28.413Z,100405.81
2022-09-14T04:53:59.211Z,100402.75
2022-09-14T04:56:28.942Z,100408.22
2022-09-14T04:59:01.811Z,100401.59
2022-09-14T05:01:32.543Z,100406.34
2022-09-14T05:04:00.614Z,100403.81
2022-09-14T05:06:31.179Z,100409.75
2022-09-14T05:09:00.229Z,100394.03
2022-09-14T05:11:30.833Z,100386.06
2022-09-14T05:14:01.049Z,100385.56
2022-09-14T05:16:30.845Z,100392.38
2022-09-14T05:19:01.819Z,100393.88
2022-09-14T05:21:31.229Z,100392.72
2022-09-14T05:24:00.809Z,100396.66
2022-09-14T05:26:30.284Z,100403.81
2022-09-14T05:29:01.571Z,100390.50
2022-09-14T05:31:31.270Z,100388.19
2022-09-14T05:33:59.628Z,100392.59
2022-09-14T05:36:27.730Z,100389.91
2022-09-14T05:38:57.624Z,100404.38
2022-09-14T05:41:25.561Z,100394.91
2022-09-14T05:43:53.479Z,100398.47
2022-09-14T05:46:23.007Z,100396.69
2022-09-14T05:48:52.043Z,100393.28
2022-09-14T05:51:21.964Z,100402.16
2022-09-14T05:53:50.622Z,100396.63
2022-09-14T05:56:19.908Z,100401.03
2022-09-14T05:58:48.156Z,100400.38
2022-09-14T06:01:18.787Z,100390.41
2022-09-14T06:03:49.820Z,100386.53
2022-09-14T06:06:19.712Z,100376.75
2022-09-14T06:08:52.273Z,100371.69
2022-09-14T06:11:22.815Z,100377.09
2022-09-14T06:13:51.297Z,100384.19
2022-09-14T06:16:21.218Z,100375.47
2022-09-14T06:18:51.568Z,100372.59
2022-09-14T06:21:21.128Z,100364.50
2022-09-14T06:23:50.365Z,100368.06
2022-09-14T06:26:18.285Z,100368.22
2022-09-14T06:28:46.168Z,100360.31
2022-09-14T06:31:15.826Z,100369.09
2022-09-14T06:33:47.452Z,100368.25
2022-09-14T06:36:19.687Z,100354.56
2022-09-14T06:38:49.697Z,100355.88
2022-09-14T06:41:20.363Z,100355.72
2022-09-14T06:43:49.155Z,100355.72
2022-09-14T06:46:19.508Z,100361.66
2022-09-14T06:48:49.912Z,100361.31
2022-09-14T06:51:21.557Z,100360.69
2022-09-14T06:53:50.377Z,100358.13
2022-09-14T06:56:19.208Z,100370.47
2022-09-14T06:58:47.248Z,100366.75
2022-09-14T07:01:17.197Z,100366.91
2022-09-14T07:03:46.932Z,100360.81
2022-09-14T07:06:16.688Z,100378.56
2022-09-14T07:08:46.177Z,100378.41
2022-09-14T07:11:17.125Z,100368.25
2022-09-14T07:13:45.974Z,100372.50
2022-09-14T07:16:14.335Z,100367.06
2022-09-14T07:18:43.040Z,100374.84
2022-09-14T07:21:14.493Z,100374.19
2022-09-14T07:23:44.709Z,100374.50
2022-09-14T07:26:15.919Z,100368.75
2022-09-14T07:28:45.016Z,100368.06
2022-09-14T07:31:18.694Z,100367.34
2022-09-14T07:33:46.910Z,100363.81
2022-09-14T07:36:15.911Z,100362.13
2022-09-14T07:38:58.979Z,100361.59
2022-09-14T07:41:30.031Z,100361.81
2022-09-14T07:44:00.587Z,100369.88
2022-09-14T07:46:29.903Z,100366.66
2022-09-14T07:49:00.287Z,100362.16
2022-09-14T07:51:29.219Z,100370.78
2022-09-14T07:53:58.076Z,100361.97
2022-09-14T07:56:26.010Z,100363.72
2022-09-14T07:59:17.283Z,100357.13
2022-09-14T08:01:47.373Z,100361.75
2022-09-14T08:04:15.223Z,100370.66
2022-09-14T08:06:43.048Z,100367.38
2022-09-14T08:09:10.915Z,100363.38
2022-09-14T08:11:39.408Z,100361.47
2022-09-14T08:14:11.458Z,100364.84
2022-09-14T08:16:40.776Z,100364.09
2022-09-14T08:19:12.937Z,100358.81
2022-09-14T08:21:45.568Z,100361.72
2022-09-14T08:24:16.635Z,100352.28
2022-09-14T08:26:44.632Z,100361.25
2022-09-14T08:29:14.644Z,100355.31
2022-09-14T08:31:45.450Z,100368.81
2022-09-14T08:34:14.881Z,100349.66
2022-09-14T08:36:43.899Z,100340.16
2022-09-14T08:39:14.865Z,100354.03
2022-09-14T08:41:49.860Z,100333.41
2022-09-14T08:44:23.256Z,100325.47
2022-09-14T08:46:55.113Z,100332.31
2022-09-14T08:49:42.040Z,100337.25
2022-09-14T08:52:14.925Z,100326.50
2022-09-14T08:54:42.704Z,100331.25
2022-09-14T08:57:17.746Z,100337.72
2022-09-14T08:59:56.170Z,100339.31
2022-09-14T09:02:52.039Z,100335.28
2022-09-14T09:05:35.595Z,100329.78
2022-09-14T09:08:07.857Z,100329.53
2022-09-14T09:10:38.647Z,100328.09
2022-09-14T09:13:08.747Z,100328.59
2022-09-14T09:15:42.986Z,100325.09
2022-09-14T09:18:17.097Z,100330.97
2022-09-14T09:20:48.311Z,100326.28
2022-09-14T09:23:18.204Z,100329.97
2022-09-14T09:25:52.685Z,100334.34
2022-09-14T09:28:22.660Z,100324.06
2022-09-14T09:30:53.547Z,100323.41
2022-09-14T09:33:28.959Z,100319.06
2022-09-14T09:36:18.764Z,100318.34
2022-09-14T09:38:46.633Z,100312.56
2022-09-14T09:41:18.448Z,100320.34
2022-09-14T09:44:01.061Z,100307.66
2022-09-14T09:46:31.784Z,100312.75
2022-09-14T09:49:03.217Z,100309.75
2022-09-14T09:51:32.625Z,100300.13
2022-09-14T09:54:08.155Z,100307.53
2022-09-14T09:56:40.632Z,100309.75
2022-09-14T09:59:24.625Z,100290.78
2022-09-14T10:01:56.379Z,100295.06
2022-09-14T10:04:27.976Z,100290.44
2022-09-14T10:06:57.729Z,100292.03
2022-09-14T10:09:28.216Z,100299.59
2022-09-14T10:12:01.450Z,100293.78
2022-09-14T10:14:32.036Z,100286.59
2022-09-14T10:17:17.095Z,100282.28
2022-09-14T10:19:48.959Z,100289.56
2022-09-14T10:22:26.991Z,100284.88
2022-09-14T10:24:58.078Z,100272.75
2022-09-14T10:27:39.694Z,100289.22
2022-09-14T10:30:13.804Z,100288.91
2022-09-14T10:32:45.819Z,100287.75
2022-09-14T10:35:15.476Z,100278.72
2022-09-14T10:37:58.085Z,100276.75
2022-09-14T10:40:33.476Z,100278.59
2022-09-14T10:43:12.787Z,100275.91
2022-09-14T10:45:43.505Z,100262.16
2022-09-14T10:48:30.653Z,100258.16
2022-09-14T10:51:08.035Z,100266.38
2022-09-14T10:53:46.000Z,100263.31
2022-09-14T10:56:20.177Z,100246.50
2022-09-14T10:59:15.510Z,100252.91
2022-09-14T11:02:07.064Z,100245.53
2022-09-14T11:04:54.244Z,100257.56
2022-09-14T11:07:30.423Z,100249.25
2022-09-14T11:10:09.657Z,100267.69
2022-09-14T11:12:46.867Z,100257.56
2022-09-14T11:15:25.898Z,100256.44
2022-09-14T11:18:10.213Z,100252.34
2022-09-14T11:20:47.063Z,100261.63
2022-09-14T11:23:27.594Z,100259.13
2022-09-14T11:25:58.905Z,100266.78
2022-09-14T11:28:30.020Z,100271.69
2022-09-14T11:31:03.866Z,100261.34
2022-09-14T11:33:38.221Z,100269.47
2022-09-14T11:36:16.674Z,100269.28
2022-09-14T11:38:51.942Z,100281.41
2022-09-14T11:41:27.354Z,100262.06
2022-09-14T11:44:00.080Z,100263.34
2022-09-14T11:46:33.655Z,100253.03
2022-09-14T11:49:19.777Z,100257.44
2022-09-14T11:51:53.552Z,100253.19
2022-09-14T11:54:23.270Z,100242.44
2022-09-14T11:56:53.801Z,100231.97
2022-09-14T11:59:55.433Z,100243.94
2022-09-14T12:02:59.944Z,100246.50
2022-09-14T12:05:37.685Z,100242.66
2022-09-14T12:08:37.229Z,100233.88
2022-09-14T12:11:33.971Z,100245.97
2022-09-14T12:14:31.828Z,100259.38
2022-09-14T12:17:35.657Z,100253.50
2022-09-14T12:20:43.968Z,100246.66
2022-09-14T12:23:22.642Z,100240.16
2022-09-14T12:26:01.260Z,100245.72
2022-09-14T12:28:38.369Z,100248.44
2022-09-14T12:31:34.230Z,100228.03
2022-09-14T12:34:27.582Z,100250.06
2022-09-14T12:37:27.334Z,100244.47
2022-09-14T12:40:39.349Z,100237.03
2022-09-14T12:43:49.604Z,100243.53
2022-09-14T12:46:47.529Z,100234.16
2022-09-14T12:49:33.460Z,100236.13
2022-09-14T12:52:20.215Z,100243.06
2022-09-14T12:55:01.490Z,100238.22
2022-09-14T12:57:40.692Z,100232.28
2022-09-14T13:00:15.640Z,100220.72
2022-09-14T13:03:16.134Z,100220.09
2022-09-14T13:05:45.362Z,100205.75
2022-09-14T13:08:14.378Z,100200.31
2022-09-14T13:10:47.808Z,100199.16
2022-09-14T13:13:20.390Z,100198.38
2022-09-14T13:15:54.913Z,100202.47
2022-09-14T13:18:41.034Z,100194.56
2022-09-14T13:21:19.826Z,100168.03
2022-09-14T13:23:48.151Z,100166.50
2022-09-14T13:26:20.560Z,100179.94
2022-09-14T13:28:52.174Z,100183.34
2022-09-14T13:31:26.621Z,100184.34
2022-09-14T13:33:56.223Z,100175.88
2022-09-14T13:36:26.784Z,100181.56
2022-09-14T13:38:56.220Z,100167.97
2022-09-14T13:41:25.624Z,100174.69
2022-09-14T13:43:56.753Z,100168.13
2022-09-14T13:46:27.387Z,100181.16
2022-09-14T13:48:56.065Z,100175.09
2022-09-14T13:51:26.001Z,100173.72
2022-09-14T13:53:55.621Z,100169.47
2022-09-14T13:56:28.113Z,100171.84
2022-09-14T13:59:21.771Z,100167.31
2022-09-14T14:01:57.113Z,100164.03
2022-09-14T14:04:30.191Z,100164.59
2022-09-14T14:07:16.628Z,100152.78
2022-09-14T14:09:50.668Z,100152.75
2022-09-14T14:12:26.977Z,100153.91
2022-09-14T14:14:58.328Z,100145.28
2022-09-14T14:17:36.586Z,100153.88
2022-09-14T14:20:31.176Z,100141.66
2022-09-14T14:23:01.740Z,100131.72
2022-09-14T14:25:32.963Z,100138.94
2022-09-14T14:28:02.789Z,100128.78
2022-09-14T14:30:34.739Z,100138.78
2022-09-14T14:33:02.833Z,100133.94
2022-09-14T14:35:32.452Z,100138.78
2022-09-14T14:38:00.423Z,100130.97
2022-09-14T14:40:28.703Z,100132.06
2022-09-14T14:42:58.722Z,100124.97
2022-09-14T14:45:28.230Z,100131.75
2022-09-14T14:47:58.477Z,100128.63
2022-09-14T14:50:29.832Z,100130.63
2022-09-14T14:52:58.570Z,100140.84
2022-09-14T14:55:27.459Z,100134.06
2022-09-14T14:57:59.571Z,100137.63
2022-09-14T15:00:28.165Z,100135.06
2022-09-14T15:02:57.444Z,100129.78
2022-09-14T15:05:25.460Z,100135.94
2022-09-14T15:07:55.003Z,100137.13
2022-09-14T15:10:25.304Z,100124.66
2022-09-14T15:12:53.304Z,100126.34
2022-09-14T15:15:24.294Z,100130.00
2022-09-14T15:17:52.885Z,100133.44
2022-09-14T15:20:23.052Z,100125.63
2022-09-14T15:22:51.315Z,100118.84
2022-09-14T15:25:21.578Z,100109.97
2022-09-14T15:27:49.657Z,100107.41
2022-09-14T15:30:17.774Z,100113.22
2022-09-14T15:32:45.726Z,100110.34
2022-09-14T15:35:15.349Z,100109.88
2022-09-14T15:37:44.607Z,100104.47
2022-09-14T15:40:13.180Z,100106.41
2022-09-14T15:42:41.171Z,100111.41
2022-09-14T15:45:09.956Z,100109.72
2022-09-14T15:47:37.795Z,100106.41
2022-09-14T15:50:06.564Z,100103.03
2022-09-14T15:52:36.996Z,100109.81
2022-09-14T15:55:08.230Z,100110.09
2022-09-14T15:57:36.845Z,100115.38
2022-09-14T16:00:06.476Z,100116.41
2022-09-14T16:02:40.952Z,100110.66
2022-09-14T16:05:09.520Z,100128.41
2022-09-14T16:07:37.387Z,100122.22
2022-09-14T16:10:08.001Z,100118.81
2022-09-14T16:12:35.824Z,100111.38
2022-09-14T16:15:03.661Z,100111.31
2022-09-14T16:17:31.498Z,100113.03
2022-09-14T16:19:59.324Z,100111.31
2022-09-14T16:22:27.247Z,100111.50
2022-09-14T16:24:55.095Z,100120.06
2022-09-14T16:27:24.274Z,100107.22
2022-09-14T16:29:52.249Z,100094.63
2022-09-14T16:32:20.183Z,100111.31
2022-09-14T16:34:48.030Z,100111.25
2022-09-14T16:37:16.659Z,100113.09
2022-09-14T16:39:44.525Z,100105.16
2022-09-14T16:42:12.339Z,100109.69
2022-09-14T16:44:41.526Z,100112.72
2022-09-14T16:47:09.346Z,100114.41
2022-09-14T16:49:39.346Z,100117.59
2022-09-14T16:52:07.306Z,100114.28
2022-09-14T16:54:35.239Z,100105.25
2022-09-14T16:57:03.113Z,100101.72
2022-09-14T16:59:30.977Z,100102.75
2022-09-14T17:02:00.259Z,100108.19
2022-09-14T17:04:28.192Z,100106.66
2022-09-14T17:06:56.815Z,100108.84
2022-09-14T17:09:27.199Z,100091.72
2022-09-14T17:11:56.071Z,100091.50
2022-09-14T17:14:27.017Z,100092.78
2022-09-14T17:16:57.927Z,100090.78
2022-09-14T17:19:27.650Z,100100.84
2022-09-14T17:21:55.771Z,100093.28
2022-09-14T17:24:24.153Z,100086.09
2022-09-14T17:26:52.081Z,100091.16
2022-09-14T17:29:20.188Z,100081.41
2022-09-14T17:31:48.305Z,100081.59
2022-09-14T17:34:17.738Z,100078.50
2022-09-14T17:36:47.209Z,100081.03
2022-09-14T17:39:15.530Z,100085.28
2022-09-14T17:41:44.017Z,100073.41
2022-09-14T17:44:13.698Z,100082.66
2022-09-14T17:46:51.647Z,100087.66
2022-09-14T17:49:21.394Z,100087.28
2022-09-14T17:51:50.825Z,100092.66
2022-09-14T17:54:19.318Z,100083.69
2022-09-14T17:56:47.303Z,100090.78
2022-09-14T17:59:16.864Z,100085.75
2022-09-14T18:01:44.956Z,100086.31
2022-09-14T18:04:15.131Z,100081.34
2022-09-14T18:06:45.243Z,100085.22
2022-09-14T18:09:18.216Z,100079.63
2022-09-14T18:11:46.619Z,100073.34
2022-09-14T18:14:15.735Z,100075.47
2022-09-14T18:16:44.626Z,100070.41
2022-09-14T18:19:13.202Z,100067.94
2022-09-14T18:21:41.616Z,100069.06
2022-09-14T18:24:11.769Z,100057.78
2022-09-14T18:26:41.064Z,100066.53
2022-09-14T18:29:08.897Z,100059.47
2022-09-14T18:31:36.802Z,100059.38
2022-09-14T18:34:04.690Z,100059.47
2022-09-14T18:36:32.641Z,100064.97
2022-09-14T18:39:00.965Z,100055.25
2022-09-14T18:41:31.326Z,100050.78
2022-09-14T18:44:01.539Z,100063.19
2022-09-14T18:46:29.592Z,100069.38
2022-09-14T18:48:59.151Z,100073.94
2022-09-14T18:51:28.967Z,100068.19
2022-09-14T18:53:58.127Z,100063.22
2022-09-14T18:56:26.726Z,100064.78
2022-09-14T18:58:54.639Z,100064.81
2022-09-14T19:01:24.041Z,100059.50
2022-09-14T19:03:53.774Z,100063.41
2022-09-14T19:06:21.999Z,100058.38
2022-09-14T19:08:50.732Z,100062.09
2022-09-14T19:11:20.699Z,100074.13
2022-09-14T19:13:51.061Z,100065.47
2022-09-14T19:16:20.220Z,100065.56
2022-09-14T19:18:50.329Z,100062.91
2022-09-14T19:21:23.730Z,100065.47
2022-09-14T19:24:00.238Z,100066.78
2022-09-14T19:26:30.199Z,100065.09
2022-09-14T19:29:00.111Z,100065.31
2022-09-14T19:31:30.402Z,100072.09
2022-09-14T19:34:00.465Z,100068.28
2022-09-14T19:36:29.422Z,100078.34
2022-09-14T19:39:01.767Z,100074.25
2022-09-14T19:41:30.600Z,100071.56
2022-09-14T19:43:58.729Z,100070.63
2022-09-14T19:46:26.761Z,100072.03
2022-09-14T19:48:55.307Z,100072.41
2022-09-14T19:51:26.950Z,100073.91
2022-09-14T19:53:56.366Z,100075.22
2022-09-14T19:56:26.803Z,100069.44
2022-09-14T19:58:57.115Z,100076.78
2022-09-14T20:01:26.652Z,100077.94
2022-09-14T20:03:55.694Z,100065.97
2022-09-14T20:06:28.887Z,100066.06
2022-09-14T20:08:59.256Z,100066.53
2022-09-14T20:11:29.289Z,100065.59
2022-09-14T20:13:58.660Z,100073.63
2022-09-14T20:16:28.970Z,100080.06
2022-09-14T20:18:58.334Z,100069.31
2022-09-14T20:21:28.932Z,100069.22
2022-09-14T20:24:15.240Z,100071.09
2022-09-14T20:26:44.825Z,100064.94
2022-09-14T20:29:12.852Z,100067.00
2022-09-14T20:31:41.040Z,100063.78
2022-09-14T20:34:08.991Z,100065.00
2022-09-14T20:36:38.197Z,100070.44
2022-09-14T20:39:06.524Z,100061.56
2022-09-14T20:41:36.141Z,100062.13
2022-09-14T20:44:04.496Z,100059.34
2022-09-14T20:46:35.313Z,100060.34
2022-09-14T20:49:04.669Z,100063.78
2022-09-14T20:51:33.023Z,100078.84
2022-09-14T20:54:02.335Z,100077.97
2022-09-14T20:56:32.753Z,100077.59
2022-09-14T20:59:03.517Z,100070.25
2022-09-14T21:01:33.268Z,100079.06
2022-09-14T21:04:04.498Z,100079.72
2022-09-14T21:06:33.025Z,100072.34
2022-09-14T21:09:02.382Z,100068.72
2022-09-14T21:11:31.035Z,100067.16
2022-09-14T21:13:58.955Z,100066.50
2022-09-14T21:16:28.450Z,100064.00
2022-09-14T21:18:58.074Z,100057.34
2022-09-14T21:21:26.652Z,100074.44
2022-09-14T21:23:55.847Z,100081.47
2022-09-14T21:26:26.099Z,100074.50
2022-09-14T21:28:57.200Z,100079.44
2022-09-14T21:31:26.678Z,100076.25
2022-09-14T21:33:57.362Z,100077.75
2022-09-14T21:36:27.318Z,100068.03
2022-09-14T21:38:56.829Z,100064.72
2022-09-14T21:41:27.932Z,100074.38
2022-09-14T21:43:56.474Z,100072.34
2022-09-14T21:46:25.069Z,100066.44
2022-09-14T21:48:54.011Z,100079.13
2022-09-14T21:51:23.532Z,100077.19
2022-09-14T21:53:53.654Z,100073.91
2022-09-14T21:56:23.691Z,100080.22
2022-09-14T21:58:54.567Z,100073.81
2022-09-14T22:01:25.325Z,100080.75
2022-09-14T22:03:54.544Z,100080.75
2022-09-14T22:06:24.411Z,100078.03
2022-09-14T22:08:52.844Z,100073.19
2022-09-14T22:11:23.442Z,100069.78
2022-09-14T22:13:55.402Z,100064.50
2022-09-14T22:16:24.756Z,100067.78
2022-09-14T22:18:54.288Z,100069.44
2022-09-14T22:21:23.159Z,100072.94
2022-09-14T22:23:52.401Z,100065.50
2022-09-14T22:26:21.551Z,100061.28
2022-09-14T22:28:51.449Z,100073.19
2022-09-14T22:31:22.372Z,100069.94
2022-09-14T22:33:51.372Z,100070.97
2022-09-14T22:36:19.280Z,100064.59
2022-09-14T22:38:47.342Z,100073.78
2022-09-14T22:41:18.131Z,100051.44
2022-09-14T22:43:47.461Z,100049.16
2022-09-14T22:46:17.764Z,100069.59
2022-09-14T22:48:47.816Z,100056.06
2022-09-14T22:51:19.307Z,100056.13
2022-09-14T22:53:47.293Z,100060.31
2022-09-14T22:56:17.428Z,100057.69
2022-09-14T22:58:46.312Z,100063.81
2022-09-14T23:01:16.713Z,100060.88
2022-09-14T23:03:44.981Z,100070.13
2022-09-14T23:06:14.513Z,100071.31
2022-09-14T23:08:42.967Z,100072.78
2022-09-14T23:11:13.019Z,100069.53
2022-09-14T23:13:42.097Z,100068.84
2022-09-14T23:16:11.729Z,100068.50
2022-09-14T23:18:39.882Z,100067.28
2022-09-14T23:21:08.069Z,100062.06
2022-09-14T23:23:39.121Z,100066.44
2022-09-14T23:26:09.074Z,100063.25
2022-09-14T23:28:37.770Z,100068.59
2022-09-14T23:31:06.341Z,100066.19
2022-09-14T23:33:34.519Z,100062.41
2022-09-14T23:36:02.498Z,100063.09
2022-09-14T23:38:30.333Z,100061.41
2022-09-14T23:40:59.571Z,100053.63
2022-09-14T23:43:27.427Z,100061.97
2022-09-14T23:45:55.406Z,100056.00
2022-09-14T23:48:23.298Z,100060.19
2022-09-14T23:50:58.011Z,100052.75
2022-09-14T23:53:26.806Z,100044.94
2022-09-14T23:55:55.248Z,100039.41
2022-09-14T23:58:25.263Z,100038.69
